Terminal Aerodrome Forecast
Issued by NWS Northern Indiana

Home | Current Version | Previous Version | Graphics & Text | Print | Product List | Glossary Off
Versions: 1 2 3 4 5 6 7 8 9 10 11 12

000
FTUS43 KIWX 211100
TAFFWA
TAF
KFWA 211120Z 2112/2212 21008KT P6SM BKN200
     FM212000 24013G19KT P6SM BKN060
     FM220300 24010KT 6SM -SHRA BKN025
     FM220900 32012KT P6SM SKC=

USA.gov is the U.S. government's official web portal to all federal, state and local government web resources and services.